createdAt,value
2022-12-01T00:01:13.955Z,87.13
2022-12-01T00:03:41.820Z,88.90
2022-12-01T00:06:12.414Z,89.70
2022-12-01T00:08:40.150Z,87.93
2022-12-01T00:11:08.808Z,85.27
2022-12-01T00:13:37.311Z,79.27
2022-12-01T00:16:13.725Z,91.83
2022-12-01T00:18:41.461Z,86.57
2022-12-01T00:21:15.268Z,84.07
2022-12-01T00:23:44.410Z,84.70
2022-12-01T00:26:12.068Z,86.50
2022-12-01T00:28:39.855Z,83.33
2022-12-01T00:31:08.265Z,88.20
2022-12-01T00:33:37.352Z,83.67
2022-12-01T00:36:06.122Z,82.30
2022-12-01T00:38:33.783Z,85.80
2022-12-01T00:41:01.501Z,92.53
2022-12-01T00:43:29.207Z,92.00
2022-12-01T00:45:57.335Z,90.23
2022-12-01T00:48:25.192Z,91.07
2022-12-01T00:50:55.551Z,88.00
2022-12-01T00:53:24.318Z,94.13
2022-12-01T00:55:53.823Z,90.63
2022-12-01T00:58:21.506Z,88.17
2022-12-01T01:00:49.583Z,104.60
2022-12-01T01:03:17.350Z,86.63
2022-12-01T01:05:45.024Z,103.77
2022-12-01T01:08:15.751Z,90.70
2022-12-01T01:10:45.588Z,100.43
2022-12-01T01:13:14.019Z,100.23
2022-12-01T01:15:42.443Z,102.97
2022-12-01T01:18:12.520Z,102.40
2022-12-01T01:20:40.388Z,103.20
2022-12-01T01:23:08.442Z,108.13
2022-12-01T01:25:37.388Z,92.00
2022-12-01T01:28:05.323Z,99.63
2022-12-01T01:30:32.984Z,94.53
2022-12-01T01:33:00.575Z,99.73
2022-12-01T01:35:28.268Z,96.07
2022-12-01T01:37:55.871Z,96.43
2022-12-01T01:40:23.461Z,95.90
2022-12-01T01:42:52.426Z,92.00
2022-12-01T01:45:25.143Z,101.40
2022-12-01T01:47:55.571Z,93.70
2022-12-01T01:50:25.958Z,93.60
2022-12-01T01:53:00.259Z,95.63
2022-12-01T01:55:29.367Z,100.10
2022-12-01T01:57:59.379Z,111.23
2022-12-01T02:00:27.068Z,100.30
2022-12-01T02:02:55.228Z,98.93
2022-12-01T02:05:25.582Z,108.80
2022-12-01T02:07:56.215Z,108.20
2022-12-01T02:10:33.830Z,106.27
2022-12-01T02:13:16.987Z,103.73
2022-12-01T02:15:52.748Z,107.67
2022-12-01T02:18:26.922Z,106.30
2022-12-01T02:21:14.266Z,95.40
2022-12-01T02:24:16.620Z,99.40
2022-12-01T02:26:51.866Z,97.57
2022-12-01T02:29:50.511Z,101.63
2022-12-01T02:32:28.739Z,104.40
2022-12-01T02:35:00.413Z,98.43
2022-12-01T02:37:35.148Z,92.33
2022-12-01T02:40:12.096Z,101.10
2022-12-01T02:42:50.612Z,89.67
2022-12-01T02:45:27.319Z,90.30
2022-12-01T02:48:01.055Z,84.47
2022-12-01T02:50:31.539Z,87.83
2022-12-01T02:53:00.847Z,84.97
2022-12-01T02:55:28.584Z,94.57
2022-12-01T02:57:56.204Z,93.53
2022-12-01T03:00:23.985Z,85.83
2022-12-01T03:03:15.722Z,92.27
2022-12-01T03:05:48.431Z,87.20
2022-12-01T03:08:27.538Z,88.30
2022-12-01T03:10:57.873Z,85.03
2022-12-01T03:13:37.810Z,84.80
2022-12-01T03:16:10.652Z,85.07
2022-12-01T03:18:42.504Z,80.90
2022-12-01T03:21:15.122Z,83.27
2022-12-01T03:23:49.514Z,81.17
2022-12-01T03:26:20.659Z,91.10
2022-12-01T03:28:52.096Z,80.63
2022-12-01T03:31:24.678Z,81.63
2022-12-01T03:33:58.854Z,89.77
2022-12-01T03:36:31.468Z,80.53
2022-12-01T03:39:04.619Z,82.17
2022-12-01T03:41:38.254Z,86.60
2022-12-01T03:44:11.081Z,79.90
2022-12-01T03:46:44.669Z,83.33
2022-12-01T03:49:15.919Z,86.77
2022-12-01T03:51:55.551Z,83.97
2022-12-01T03:54:34.766Z,98.63
2022-12-01T03:57:09.374Z,86.80
2022-12-01T03:59:39.518Z,90.63
2022-12-01T04:02:07.714Z,99.10
2022-12-01T04:04:37.164Z,91.87
2022-12-01T04:07:06.283Z,87.40
2022-12-01T04:09:33.918Z,89.93
2022-12-01T04:12:19.280Z,100.70
2022-12-01T04:14:46.863Z,96.10
2022-12-01T04:17:14.451Z,95.43
2022-12-01T04:19:43.411Z,86.90
2022-12-01T04:22:10.991Z,95.53
2022-12-01T04:24:39.038Z,94.40
2022-12-01T04:27:06.732Z,95.27
2022-12-01T04:29:34.327Z,92.97
2022-12-01T04:32:01.992Z,93.03
2022-12-01T04:34:29.614Z,101.73
2022-12-01T04:36:58.567Z,108.60
2022-12-01T04:39:26.143Z,85.83
2022-12-01T04:41:53.733Z,94.17
2022-12-01T04:44:21.423Z,96.63
2022-12-01T04:46:49.061Z,102.63
2022-12-01T04:49:16.687Z,90.50
2022-12-01T04:51:44.299Z,88.57
2022-12-01T04:54:13.595Z,74.73
2022-12-01T04:56:41.387Z,94.87
2022-12-01T04:59:09.494Z,84.27
2022-12-01T05:01:37.515Z,86.43
2022-12-01T05:04:05.556Z,87.33
2022-12-01T05:06:33.331Z,83.23
2022-12-01T05:09:02.391Z,84.10
2022-12-01T05:11:32.702Z,83.27
2022-12-01T05:14:00.716Z,79.77
2022-12-01T05:16:31.739Z,80.33
2022-12-01T05:19:18.476Z,76.30
2022-12-01T05:21:47.940Z,78.50
2022-12-01T05:24:17.068Z,71.67
2022-12-01T05:26:46.622Z,83.20
2022-12-01T05:29:14.587Z,74.70
2022-12-01T05:31:42.653Z,74.30
2022-12-01T05:34:10.682Z,70.73
2022-12-01T05:36:38.254Z,74.13
2022-12-01T05:39:05.955Z,71.20
2022-12-01T05:41:33.538Z,73.23
2022-12-01T05:44:02.626Z,72.10
2022-12-01T05:46:30.196Z,71.73
2022-12-01T05:48:57.784Z,69.83
2022-12-01T05:51:25.400Z,73.47
2022-12-01T05:53:53.110Z,71.00
2022-12-01T05:56:20.682Z,70.00
2022-12-01T05:58:48.279Z,69.37
2022-12-01T06:01:17.369Z,71.87
2022-12-01T06:03:44.994Z,71.10
2022-12-01T06:06:12.614Z,75.63
2022-12-01T06:08:40.227Z,71.53
2022-12-01T06:11:07.864Z,70.27
2022-12-01T06:13:35.434Z,75.57
2022-12-01T06:16:05.157Z,72.27
2022-12-01T06:18:36.607Z,70.43
2022-12-01T06:21:06.089Z,68.50
2022-12-01T06:23:33.873Z,66.80
2022-12-01T06:26:01.448Z,65.20
2022-12-01T06:28:29.051Z,64.03
2022-12-01T06:31:02.789Z,63.17
2022-12-01T06:33:31.436Z,62.83
2022-12-01T06:36:01.342Z,65.53
2022-12-01T06:38:31.999Z,61.80
2022-12-01T06:40:59.594Z,62.37
2022-12-01T06:43:27.484Z,60.83
2022-12-01T06:45:59.622Z,61.90
2022-12-01T06:48:29.049Z,61.37
2022-12-01T06:50:58.314Z,62.30
2022-12-01T06:53:28.415Z,61.23
2022-12-01T06:56:00.040Z,60.20
2022-12-01T06:58:27.800Z,61.53
2022-12-01T07:00:55.716Z,62.90
2022-12-01T07:03:23.402Z,61.17
2022-12-01T07:05:58.463Z,60.80
2022-12-01T07:08:27.839Z,62.57
2022-12-01T07:10:59.723Z,64.70
2022-12-01T07:13:32.788Z,62.40
2022-12-01T07:16:02.518Z,61.13
2022-12-01T07:18:30.620Z,65.53
2022-12-01T07:21:01.052Z,62.00
2022-12-01T07:23:30.621Z,60.70
2022-12-01T07:26:01.587Z,60.37
2022-12-01T07:28:29.361Z,61.40
2022-12-01T07:31:03.100Z,57.13
2022-12-01T07:33:31.339Z,59.33
2022-12-01T07:35:59.496Z,60.53
2022-12-01T07:38:30.462Z,61.83
2022-12-01T07:41:02.795Z,61.83
2022-12-01T07:43:31.494Z,59.70
2022-12-01T07:46:04.179Z,58.90
2022-12-01T07:48:32.461Z,61.20
2022-12-01T07:51:00.093Z,59.37
2022-12-01T07:53:27.743Z,57.17
2022-12-01T07:55:56.695Z,58.03
2022-12-01T07:58:24.278Z,60.60
2022-12-01T08:00:51.928Z,61.33
2022-12-01T08:03:20.031Z,58.90
2022-12-01T08:05:56.329Z,57.83
2022-12-01T08:08:24.009Z,58.57
2022-12-01T08:10:52.036Z,59.87
2022-12-01T08:13:21.771Z,57.17
2022-12-01T08:15:49.428Z,59.13
2022-12-01T08:18:17.191Z,58.73
2022-12-01T08:20:44.808Z,60.50
2022-12-01T08:23:12.410Z,58.87
2022-12-01T08:25:39.996Z,57.30
2022-12-01T08:28:07.668Z,59.23
2022-12-01T08:30:37.423Z,57.57
2022-12-01T08:33:05.159Z,55.07
2022-12-01T08:35:33.858Z,56.60
2022-12-01T08:38:01.435Z,56.70
2022-12-01T08:40:29.087Z,56.70
2022-12-01T08:42:56.753Z,56.67
2022-12-01T08:45:24.432Z,57.73
2022-12-01T08:47:54.440Z,57.40
2022-12-01T08:50:22.091Z,57.07
2022-12-01T08:52:49.693Z,60.07
2022-12-01T08:55:17.407Z,60.00
2022-12-01T08:57:45.049Z,61.43
2022-12-01T09:00:13.750Z,62.43
2022-12-01T09:02:41.436Z,64.17
2022-12-01T09:05:10.821Z,65.20
2022-12-01T09:07:38.553Z,63.63
2022-12-01T09:10:07.379Z,65.20
2022-12-01T09:12:35.003Z,67.70
2022-12-01T09:15:02.704Z,66.30
2022-12-01T09:17:30.328Z,65.77
2022-12-01T09:19:57.906Z,70.53
2022-12-01T09:22:26.902Z,67.13
2022-12-01T09:24:54.501Z,69.10
2022-12-01T09:27:22.114Z,69.20
2022-12-01T09:29:49.897Z,68.40
2022-12-01T09:32:17.743Z,67.77
2022-12-01T09:34:45.595Z,71.00
2022-12-01T09:37:13.215Z,74.37
2022-12-01T09:39:42.163Z,70.60
2022-12-01T09:42:15.485Z,70.67
2022-12-01T09:44:47.554Z,67.73
2022-12-01T09:47:20.447Z,65.43
2022-12-01T09:49:55.267Z,67.50
2022-12-01T09:52:26.035Z,69.07
2022-12-01T09:54:56.279Z,80.10
2022-12-01T09:57:30.915Z,77.47
2022-12-01T09:59:59.551Z,77.50
2022-12-01T10:02:34.305Z,69.67
2022-12-01T10:05:05.516Z,68.67
2022-12-01T10:07:37.495Z,68.80
2022-12-01T10:10:12.012Z,70.83
2022-12-01T10:12:43.148Z,70.23
2022-12-01T10:15:17.614Z,70.10
2022-12-01T10:17:58.395Z,71.10
2022-12-01T10:20:30.700Z,71.47
2022-12-01T10:23:28.961Z,68.83
2022-12-01T10:26:00.139Z,66.27
2022-12-01T10:28:55.027Z,66.53
2022-12-01T10:31:29.884Z,68.00
2022-12-01T10:34:02.966Z,68.80
2022-12-01T10:36:33.146Z,68.60
2022-12-01T10:39:01.028Z,70.70
2022-12-01T10:41:34.728Z,70.60
2022-12-01T10:44:05.602Z,70.00
2022-12-01T10:46:40.668Z,71.93
2022-12-01T10:49:11.155Z,75.93
2022-12-01T10:51:54.018Z,72.03
2022-12-01T10:54:23.079Z,71.23
2022-12-01T10:56:56.926Z,71.07
2022-12-01T10:59:29.123Z,72.00
2022-12-01T11:01:58.785Z,73.83
2022-12-01T11:04:35.434Z,72.67
2022-12-01T11:07:04.083Z,73.00
2022-12-01T11:09:32.306Z,70.77
2022-12-01T11:12:03.033Z,73.17
2022-12-01T11:14:43.749Z,78.07
2022-12-01T11:17:34.341Z,71.23
2022-12-01T11:20:26.554Z,75.90
2022-12-01T11:22:54.482Z,79.27
2022-12-01T11:25:22.954Z,81.73
2022-12-01T11:27:57.474Z,77.57
2022-12-01T11:30:27.261Z,77.17
2022-12-01T11:32:57.963Z,76.37
2022-12-01T11:35:28.838Z,78.57
2022-12-01T11:38:29.178Z,82.40
2022-12-01T11:40:50.573Z,74.57
2022-12-01T11:43:28.511Z,81.40
2022-12-01T11:45:59.579Z,82.63
2022-12-01T11:48:29.231Z,79.83
2022-12-01T11:51:08.352Z,80.40
2022-12-01T11:53:38.268Z,77.70
2022-12-01T11:56:19.846Z,80.70
2022-12-01T11:58:51.113Z,78.97
2022-12-01T12:01:33.183Z,75.03
2022-12-01T12:04:17.250Z,77.90
2022-12-01T12:06:53.422Z,75.87
2022-12-01T12:09:44.743Z,80.10
2022-12-01T12:12:27.187Z,75.70
2022-12-01T12:15:06.416Z,77.27
2022-12-01T12:17:48.729Z,80.33
2022-12-01T12:20:28.524Z,79.40
2022-12-01T12:23:09.520Z,82.47
2022-12-01T12:25:52.314Z,82.43
2022-12-01T12:28:32.580Z,83.13
2022-12-01T12:31:11.365Z,91.77
2022-12-01T12:34:10.700Z,84.00
2022-12-01T12:36:47.973Z,88.20
2022-12-01T12:39:42.738Z,80.40
2022-12-01T12:42:20.934Z,79.57
2022-12-01T12:44:52.668Z,87.50
2022-12-01T12:47:36.410Z,78.57
2022-12-01T12:50:23.544Z,77.33
2022-12-01T12:52:55.739Z,75.60
2022-12-01T12:55:27.655Z,77.77
2022-12-01T12:57:59.995Z,81.83
2022-12-01T13:00:29.066Z,71.77
2022-12-01T13:03:04.803Z,70.53
2022-12-01T13:05:39.909Z,75.97
2022-12-01T13:08:12.632Z,77.47
2022-12-01T13:10:43.730Z,71.27
2022-12-01T13:13:20.292Z,76.50
2022-12-01T13:15:50.581Z,77.87
2022-12-01T13:18:34.483Z,71.77
2022-12-01T13:21:03.658Z,82.60
2022-12-01T13:23:32.412Z,75.53
2022-12-01T13:26:02.526Z,72.53
2022-12-01T13:28:36.019Z,88.53
2022-12-01T13:31:06.615Z,77.63
2022-12-01T13:33:37.330Z,80.80
2022-12-01T13:39:01.012Z,85.90
2022-12-01T13:41:33.059Z,92.27
2022-12-01T13:44:04.855Z,86.93
2022-12-01T13:46:50.302Z,85.57
2022-12-01T13:49:36.831Z,85.27
2022-12-01T13:52:31.372Z,84.23
2022-12-01T13:55:19.682Z,82.93
2022-12-01T13:57:50.368Z,83.57
2022-12-01T14:00:27.861Z,75.97
2022-12-01T14:03:33.332Z,92.40
2022-12-01T14:06:10.776Z,73.17
2022-12-01T14:08:46.936Z,80.83
2022-12-01T14:11:22.325Z,75.53
2022-12-01T14:13:56.052Z,74.27
2022-12-01T14:16:24.741Z,73.90
2022-12-01T14:18:56.250Z,70.40
2022-12-01T14:21:46.871Z,72.07
2022-12-01T14:24:24.825Z,67.67
2022-12-01T14:26:53.787Z,72.20
2022-12-01T14:29:30.607Z,67.50
2022-12-01T14:32:22.223Z,71.77
2022-12-01T14:35:12.535Z,69.47
2022-12-01T14:37:49.044Z,68.90
2022-12-01T14:40:30.347Z,71.60
2022-12-01T14:43:17.023Z,71.27
2022-12-01T14:45:56.259Z,68.60
2022-12-01T14:48:29.064Z,73.67
2022-12-01T14:51:12.005Z,67.03
2022-12-01T14:53:45.848Z,70.23
2022-12-01T14:56:17.412Z,67.37
2022-12-01T14:58:53.307Z,69.83
2022-12-01T15:01:22.878Z,70.50
2022-12-01T15:03:52.731Z,66.30
2022-12-01T15:06:23.265Z,72.27
2022-12-01T15:09:32.068Z,70.53
2022-12-01T15:11:56.598Z,76.90
2022-12-01T15:14:30.307Z,75.20
2022-12-01T15:16:58.242Z,73.27
2022-12-01T15:19:31.705Z,74.40
2022-12-01T15:22:00.704Z,73.80
2022-12-01T15:24:30.979Z,77.40
2022-12-01T15:27:03.671Z,71.17
2022-12-01T15:29:33.019Z,71.97
2022-12-01T15:32:03.573Z,70.17
2022-12-01T15:34:34.116Z,69.50
2022-12-01T15:37:06.008Z,73.07
2022-12-01T15:39:38.195Z,71.27
2022-12-01T15:42:06.427Z,74.47
2022-12-01T15:44:36.167Z,81.70
2022-12-01T15:47:31.411Z,69.50
2022-12-01T15:49:59.037Z,70.50
2022-12-01T15:52:26.727Z,68.93
2022-12-01T15:54:57.480Z,80.47
2022-12-01T15:57:25.512Z,69.20
2022-12-01T15:59:55.762Z,70.73
2022-12-01T16:02:30.161Z,71.50
2022-12-01T16:05:03.403Z,73.47
2022-12-01T16:08:04.929Z,65.90
2022-12-01T16:10:31.379Z,70.10
2022-12-01T16:13:36.111Z,73.00
2022-12-01T16:16:29.458Z,70.80
2022-12-01T16:18:59.802Z,73.60
2022-12-01T16:21:28.310Z,66.63
2022-12-01T16:24:01.075Z,69.33
2022-12-01T16:26:31.158Z,71.97
2022-12-01T16:28:59.826Z,75.97
2022-12-01T16:31:28.223Z,69.53
2022-12-01T16:34:13.942Z,70.83
2022-12-01T16:36:51.422Z,73.40
2022-12-01T16:39:19.040Z,73.10
2022-12-01T16:41:48.129Z,72.63
2022-12-01T16:44:32.151Z,73.13
2022-12-01T16:46:59.770Z,75.13
2022-12-01T16:49:28.548Z,73.30
2022-12-01T16:51:57.376Z,77.33
2022-12-01T16:54:25.812Z,75.53
2022-12-01T16:56:54.847Z,80.20
2022-12-01T16:59:22.435Z,78.90
2022-12-01T17:01:50.092Z,73.70
2022-12-01T17:04:17.988Z,81.17
2022-12-01T17:06:45.655Z,72.60
2022-12-01T17:09:13.288Z,94.37
2022-12-01T17:11:40.879Z,77.47
2022-12-01T17:14:09.936Z,73.40
2022-12-01T17:16:38.420Z,83.50
2022-12-01T17:19:06.122Z,82.27
2022-12-01T17:21:33.719Z,82.90
2022-12-01T17:24:01.286Z,90.63
2022-12-01T17:26:28.891Z,83.57
2022-12-01T17:28:56.527Z,77.00
2022-12-01T17:31:25.570Z,85.00
2022-12-01T17:33:53.227Z,94.03
2022-12-01T17:36:20.878Z,83.73
2022-12-01T17:38:50.407Z,90.83
2022-12-01T17:41:21.722Z,89.10
2022-12-01T17:43:49.434Z,98.10
2022-12-01T17:46:17.225Z,87.23
2022-12-01T17:48:47.690Z,88.97
2022-12-01T17:51:15.979Z,96.57
2022-12-01T17:53:43.654Z,97.13
2022-12-01T17:56:14.399Z,91.93
2022-12-01T17:58:42.533Z,94.00
2022-12-01T18:01:16.207Z,88.20
2022-12-01T18:03:44.535Z,98.60
2022-12-01T18:06:14.014Z,94.53
2022-12-01T18:08:42.468Z,88.73
2022-12-01T18:11:13.970Z,94.53
2022-12-01T18:13:43.795Z,88.53
2022-12-01T18:16:13.532Z,94.07
2022-12-01T18:18:41.612Z,87.13
2022-12-01T18:21:11.180Z,105.03
2022-12-01T18:23:40.598Z,96.43
2022-12-01T18:26:15.438Z,91.73
2022-12-01T18:28:44.054Z,100.30
2022-12-01T18:31:14.167Z,94.57
2022-12-01T18:33:44.844Z,96.33
2022-12-01T18:36:14.880Z,108.80
2022-12-01T18:38:44.551Z,103.33
2022-12-01T18:41:12.203Z,99.07
2022-12-01T18:43:39.864Z,101.50
2022-12-01T18:46:08.011Z,98.57
2022-12-01T18:48:36.172Z,99.93
2022-12-01T18:51:04.262Z,99.57
2022-12-01T18:53:32.575Z,98.80
2022-12-01T18:56:04.280Z,100.17
2022-12-01T18:58:32.535Z,104.93
2022-12-01T19:01:00.313Z,90.13
2022-12-01T19:03:30.073Z,98.23
2022-12-01T19:05:58.092Z,98.47
2022-12-01T19:08:26.127Z,91.67
2022-12-01T19:10:59.525Z,105.43
2022-12-01T19:13:28.746Z,99.30
2022-12-01T19:15:56.406Z,98.53
2022-12-01T19:18:24.059Z,114.60
2022-12-01T19:20:51.916Z,118.20
2022-12-01T19:23:19.548Z,112.60
2022-12-01T19:25:47.148Z,97.87
2022-12-01T19:28:14.956Z,113.57
2022-12-01T19:30:48.078Z,103.40
2022-12-01T19:33:16.328Z,111.03
2022-12-01T19:35:43.914Z,114.10
2022-12-01T19:38:11.491Z,96.20
2022-12-01T19:40:39.443Z,118.37
2022-12-01T19:43:07.063Z,103.87
2022-12-01T19:45:38.084Z,87.67
2022-12-01T19:48:07.744Z,91.83
2022-12-01T19:50:36.511Z,97.87
2022-12-01T19:53:04.980Z,95.07
2022-12-01T19:55:32.584Z,94.93
2022-12-01T19:58:00.169Z,96.03
2022-12-01T20:00:27.762Z,94.80
2022-12-01T20:02:55.357Z,101.33
2022-12-01T20:05:24.516Z,105.43
2022-12-01T20:07:52.210Z,103.57
2022-12-01T20:10:20.487Z,114.40
2022-12-01T20:12:48.246Z,146.33
2022-12-01T20:15:16.159Z,124.87
2022-12-01T20:17:44.290Z,117.03
2022-12-01T20:20:13.172Z,125.20
2022-12-01T20:22:42.143Z,96.77
2022-12-01T20:25:10.059Z,95.67
2022-12-01T20:27:37.695Z,101.23
2022-12-01T20:30:06.286Z,99.13
2022-12-01T20:32:34.565Z,90.83
2022-12-01T20:35:03.514Z,99.27
2022-12-01T20:37:31.323Z,91.60
2022-12-01T20:40:00.256Z,96.30
2022-12-01T20:42:27.843Z,88.43
2022-12-01T20:44:55.508Z,109.80
2022-12-01T20:47:23.116Z,92.80
2022-12-01T20:49:54.204Z,97.50
2022-12-01T20:52:25.676Z,99.97
2022-12-01T20:54:53.249Z,93.53
2022-12-01T20:57:22.199Z,96.80
2022-12-01T20:59:49.786Z,103.80
2022-12-01T21:02:17.403Z,114.90
2022-12-01T21:04:45.171Z,99.50
2022-12-01T21:07:12.757Z,110.60
2022-12-01T21:09:40.561Z,103.83
2022-12-01T21:12:31.336Z,88.47
2022-12-01T21:15:08.913Z,104.17
2022-12-01T21:17:40.782Z,84.10
2022-12-01T21:20:21.323Z,95.57
2022-12-01T21:22:50.547Z,94.47
2022-12-01T21:25:20.643Z,100.03
2022-12-01T21:27:48.863Z,87.33
2022-12-01T21:30:20.989Z,85.10
2022-12-01T21:32:49.695Z,97.37
2022-12-01T21:35:20.093Z,82.93
2022-12-01T21:37:48.623Z,106.13
2022-12-01T21:40:26.931Z,117.03
2022-12-01T21:42:54.542Z,81.10
2022-12-01T21:45:27.018Z,89.80
2022-12-01T21:47:58.263Z,95.30
2022-12-01T21:50:27.272Z,81.70
2022-12-01T21:52:54.888Z,102.10
2022-12-01T21:55:35.801Z,95.93
2022-12-01T21:58:03.935Z,96.57
2022-12-01T22:00:34.908Z,80.83
2022-12-01T22:03:19.248Z,80.63
2022-12-01T22:06:13.455Z,82.40
2022-12-01T22:08:38.289Z,79.50
2022-12-01T22:11:12.205Z,81.67
2022-12-01T22:13:42.527Z,78.77
2022-12-01T22:16:15.647Z,74.47
2022-12-01T22:18:46.150Z,81.43
2022-12-01T22:21:32.715Z,79.43
2022-12-01T22:24:13.069Z,75.23
2022-12-01T22:26:44.051Z,82.57
2022-12-01T22:29:26.283Z,80.80
2022-12-01T22:32:07.959Z,81.87
2022-12-01T22:34:35.747Z,81.73
2022-12-01T22:37:03.603Z,84.23
2022-12-01T22:39:33.946Z,75.00
2022-12-01T22:42:07.159Z,70.87
2022-12-01T22:44:34.853Z,93.07
2022-12-01T22:47:04.564Z,75.27
2022-12-01T22:49:32.150Z,87.83
2022-12-01T22:52:02.161Z,99.37
2022-12-01T22:54:39.754Z,75.13
2022-12-01T22:57:26.335Z,85.97
2022-12-01T22:59:54.883Z,81.13
2022-12-01T23:02:26.252Z,76.03
2022-12-01T23:04:57.495Z,82.10
2022-12-01T23:07:31.303Z,89.47
2022-12-01T23:10:05.322Z,85.70
2022-12-01T23:12:34.967Z,85.17
2022-12-01T23:15:17.562Z,80.03
2022-12-01T23:17:46.588Z,86.50
2022-12-01T23:20:27.376Z,82.37
2022-12-01T23:22:56.015Z,81.83
2022-12-01T23:25:24.788Z,76.33
2022-12-01T23:27:54.280Z,77.07
2022-12-01T23:30:23.279Z,83.87
2022-12-01T23:33:04.301Z,87.00
2022-12-01T23:35:40.042Z,69.17
2022-12-01T23:38:15.188Z,72.60
2022-12-01T23:40:42.838Z,78.07
2022-12-01T23:43:16.714Z,86.40
2022-12-01T23:45:45.536Z,71.53
2022-12-01T23:48:20.154Z,71.67
2022-12-01T23:50:50.233Z,75.03
2022-12-01T23:53:26.218Z,82.13
2022-12-01T23:55:53.846Z,76.33
2022-12-01T23:58:21.575Z,81.70
